Terminal Aerodrome Forecast
Issued by NWS

Home | Current Version | Previous Version | Graphics & Text | Print | Product List | Glossary On
Versions: 1 2 3 4 5 6 7 8 9 10 11 12 13 14 15 16 17 18 19 20 21 22 23 24 25 26 27 28 29 30
450
FTUS43 KGRB 241556 AAC
TAFCWA
TAF AMD
KCWA 241556Z 2416/2512 10006KT P6SM SCT150
     FM242100 10010G17KT P6SM OVC035
     FM250100 10014G25KT 5SM -SNPL OVC008
     FM250300 10015G23KT 1SM -SN BR OVC006 WS020/12045KT
      TEMPO 2505/2508 1/2SM SN OVC003
     FM250800 24014G25KT 2SM -SHSN BR OVC010=

USA.gov is the U.S. government's official web portal to all federal, state and local government web resources and services.